Time;durP1;ratioP1;P1;durP2;ratioP2;P2;SDS_P1;SDS_P2;PMS_P1;PMS_P2;Temp;Humidity;BMP_temperature;BMP_pressure;BME280_temperature;BME280_humidity;BME280_pressure;Samples;Min_cycle;Max_cycle;Signal;HPM_P1;HPM_P2
2021/07/13 00:00:56;;;;;;;5.88;5.28;;;24.20;61.30;;;;;;4979522;28;20039;-78
2021/07/13 00:03:22;;;;;;;6.10;5.50;;;24.20;61.30;;;;;;4979553;28;20057;-78
2021/07/13 00:05:48;;;;;;;6.22;5.63;;;24.20;61.40;;;;;;4995326;28;20479;-79
2021/07/13 00:08:14;;;;;;;5.78;5.05;;;24.20;61.40;;;;;;4996333;28;20146;-78
2021/07/13 00:10:43;;;;;;;6.47;5.85;;;24.20;61.40;;;;;;4979178;28;20507;-78
2021/07/13 00:13:09;;;;;;;5.97;5.38;;;24.10;61.40;;;;;;4978555;28;20034;-78
2021/07/13 00:15:38;;;;;;;5.75;5.07;;;24.10;61.50;;;;;;4994992;28;20041;-78
2021/07/13 00:18:05;;;;;;;5.93;5.32;;;24.00;61.40;;;;;;4978892;28;20109;-78
2021/07/13 00:20:32;;;;;;;5.80;5.20;;;24.00;61.40;;;;;;4977351;28;20034;-78
2021/07/13 00:22:58;;;;;;;6.00;5.40;;;24.00;61.50;;;;;;4979319;28;20042;-78
2021/07/13 00:25:25;;;;;;;5.85;5.18;;;24.00;61.50;;;;;;4995262;28;20027;-78
2021/07/13 00:27:51;;;;;;;5.72;5.18;;;23.90;61.50;;;;;;4978917;28;20424;-79
2021/07/13 00:30:18;;;;;;;6.07;5.47;;;24.00;61.60;;;;;;4977968;28;20061;-78
2021/07/13 00:32:45;;;;;;;5.97;5.22;;;23.90;61.50;;;;;;4978149;28;20479;-78
2021/07/13 00:35:11;;;;;;;5.90;5.30;;;23.90;61.50;;;;;;4962134;28;20117;-78
2021/07/13 00:37:37;;;;;;;5.82;5.22;;;23.90;61.60;;;;;;4978805;28;20110;-79
2021/07/13 00:40:05;;;;;;;5.97;5.38;;;23.80;61.50;;;;;;4996018;28;20029;-78
2021/07/13 00:42:31;;;;;;;5.50;4.93;;;23.80;61.50;;;;;;4978545;28;20038;-78
2021/07/13 00:44:57;;;;;;;6.30;5.70;;;23.80;61.50;;;;;;4994852;28;20451;-78
2021/07/13 00:47:26;;;;;;;6.05;5.45;;;23.80;61.50;;;;;;4994680;28;20490;-78
2021/07/13 00:49:52;;;;;;;6.32;5.60;;;23.80;62.20;;;;;;4978303;28;20390;-78
2021/07/13 00:52:19;;;;;;;6.78;6.03;;;23.80;62.20;;;;;;4978429;28;20030;-78
2021/07/13 00:54:48;;;;;;;5.95;5.35;;;23.80;61.60;;;;;;4978508;28;20035;-78
2021/07/13 00:57:15;;;;;;;6.43;5.55;;;23.70;61.60;;;;;;4978317;28;20030;-78
2021/07/13 00:59:41;;;;;;;6.20;5.60;;;23.70;61.60;;;;;;4978223;28;20038;-78
2021/07/13 01:02:09;;;;;;;5.78;4.93;;;23.70;61.60;;;;;;4962012;28;20398;-78
2021/07/13 01:04:39;;;;;;;6.15;5.55;;;23.70;61.60;;;;;;4978694;28;20494;-78
2021/07/13 01:07:13;;;;;;;5.95;5.35;;;23.60;61.60;;;;;;4978177;28;20050;-79
2021/07/13 01:09:57;;;;;;;5.47;4.97;;;23.60;61.60;;;;;;4994829;28;20096;-78
2021/07/13 01:12:29;;;;;;;5.88;5.28;;;23.60;61.60;;;;;;4994134;28;20124;-78
2021/07/13 01:14:58;;;;;;;6.13;5.28;;;23.60;61.60;;;;;;4978852;28;20034;-78
2021/07/13 01:18:01;;;;;;;6.13;5.53;;;23.50;61.60;;;;;;4995037;28;20415;-78
2021/07/13 01:20:46;;;;;;;5.63;5.05;;;23.50;61.80;;;;;;4977846;28;20038;-78
2021/07/13 01:23:30;;;;;;;5.90;5.18;;;23.50;61.70;;;;;;4977844;28;20030;-78
2021/07/13 01:26:26;;;;;;;5.90;5.10;;;23.50;61.80;;;;;;4961953;28;20034;-78
2021/07/13 01:29:05;;;;;;;6.00;5.40;;;23.50;61.80;;;;;;4993944;28;20023;-78
2021/07/13 01:31:31;;;;;;;6.15;5.55;;;23.50;61.90;;;;;;4995434;28;20113;-78
2021/07/13 01:34:03;;;;;;;6.05;5.47;;;23.50;62.40;;;;;;4977485;28;20045;-79
2021/07/13 01:36:38;;;;;;;6.28;5.65;;;23.40;61.90;;;;;;4977335;28;20034;-78
2021/07/13 01:39:05;;;;;;;6.05;5.45;;;23.40;61.90;;;;;;4977640;28;20027;-79
2021/07/13 01:41:32;;;;;;;6.18;5.57;;;23.40;61.80;;;;;;4993728;28;20026;-78
2021/07/13 01:43:59;;;;;;;6.60;5.90;;;23.40;61.90;;;;;;4977284;28;20521;-78
2021/07/13 01:46:27;;;;;;;6.07;5.47;;;23.40;61.90;;;;;;4994854;28;20110;-78
2021/07/13 01:48:55;;;;;;;5.88;5.28;;;23.40;61.90;;;;;;4995053;28;20073;-79
2021/07/13 01:51:23;;;;;;;6.35;5.70;;;23.40;62.00;;;;;;4961268;28;20066;-78
2021/07/13 01:53:52;;;;;;;6.35;5.47;;;23.40;62.00;;;;;;4961145;28;20034;-78
2021/07/13 01:56:21;;;;;;;6.40;5.72;;;23.30;61.90;;;;;;4994215;28;20030;-78
2021/07/13 01:58:47;;;;;;;5.65;5.07;;;23.30;62.00;;;;;;4993261;28;20030;-78
2021/07/13 02:01:22;;;;;;;5.20;4.68;;;23.30;62.00;;;;;;4993121;28;20391;-78
2021/07/13 02:03:50;;;;;;;6.35;5.75;;;23.30;62.10;;;;;;4994440;28;20038;-78
2021/07/13 02:06:18;;;;;;;6.25;5.65;;;23.30;62.10;;;;;;4992914;28;20137;-78
2021/07/13 02:08:44;;;;;;;6.38;5.78;;;23.20;62.00;;;;;;4994612;28;20450;-79
2021/07/13 02:11:12;;;;;;;6.05;5.45;;;23.20;62.10;;;;;;4977051;28;20463;-78
2021/07/13 02:13:38;;;;;;;5.93;5.32;;;23.20;62.10;;;;;;4976902;28;20519;-78
2021/07/13 02:16:05;;;;;;;5.95;5.35;;;23.20;62.10;;;;;;4977081;28;20107;-78
2021/07/13 02:18:31;;;;;;;5.82;5.22;;;23.20;62.10;;;;;;4994238;28;20027;-78
2021/07/13 02:20:57;;;;;;;6.15;5.45;;;23.20;62.10;;;;;;4992983;28;20038;-78
2021/07/13 02:23:22;;;;;;;5.75;5.15;;;23.20;62.20;;;;;;4993631;28;20030;-78
2021/07/13 02:25:51;;;;;;;5.55;4.93;;;23.20;62.10;;;;;;4994323;28;20382;-78
2021/07/13 02:28:23;;;;;;;5.97;5.10;;;23.10;62.20;;;;;;4992876;28;20423;-77
2021/07/13 02:30:55;;;;;;;6.18;5.57;;;23.20;62.30;;;;;;4976802;28;20117;-78
2021/07/13 02:33:27;;;;;;;5.80;5.20;;;23.10;62.20;;;;;;4960835;28;20124;-78
2021/07/13 02:35:57;;;;;;;5.80;5.07;;;23.10;62.30;;;;;;4976576;28;20055;-78
2021/07/13 02:38:24;;;;;;;5.60;4.97;;;23.10;62.30;;;;;;4960585;28;20030;-78
2021/07/13 02:40:51;;;;;;;5.22;4.72;;;23.10;62.30;;;;;;4992979;28;20105;-78
2021/07/13 02:43:19;;;;;;;5.70;5.10;;;23.10;62.30;;;;;;4960382;28;20386;-77
2021/07/13 02:45:45;;;;;;;5.22;4.72;;;23.00;62.30;;;;;;4964633;28;20031;-78
2021/07/13 02:48:12;;;;;;;6.05;5.43;;;23.00;62.30;;;;;;4980749;28;20039;-77
2021/07/13 02:50:40;;;;;;;6.00;5.28;;;23.00;62.40;;;;;;4980630;28;20023;-78
2021/07/13 02:53:09;;;;;;;6.10;5.40;;;23.00;62.40;;;;;;4980265;28;20050;-78
2021/07/13 02:55:35;;;;;;;5.50;4.97;;;23.00;62.40;;;;;;4980509;28;20072;-78
2021/07/13 02:58:03;;;;;;;6.30;5.70;;;23.00;62.40;;;;;;4980611;28;20470;-77
2021/07/13 03:00:30;;;;;;;5.75;5.15;;;23.00;62.50;;;;;;4964482;28;20027;-78
2021/07/13 03:02:56;;;;;;;5.63;5.05;;;23.00;62.50;;;;;;4964380;28;20121;-77
2021/07/13 03:05:24;;;;;;;5.63;5.03;;;23.00;62.50;;;;;;4980391;28;20038;-78
2021/07/13 03:07:51;;;;;;;5.50;4.93;;;23.00;62.50;;;;;;4964068;28;20376;-77
2021/07/13 03:10:22;;;;;;;6.15;5.47;;;22.90;62.50;;;;;;4997253;28;20109;-78
2021/07/13 03:12:49;;;;;;;6.00;5.38;;;22.90;62.50;;;;;;4997595;28;20031;-78
2021/07/13 03:15:17;;;;;;;5.88;5.13;;;22.90;62.50;;;;;;4979992;28;20544;-78
2021/07/13 03:17:43;;;;;;;6.07;5.30;;;22.90;62.50;;;;;;4996363;28;20382;-78
2021/07/13 03:20:09;;;;;;;5.95;5.35;;;22.90;62.50;;;;;;4979902;28;20126;-78
2021/07/13 03:22:40;;;;;;;5.82;5.13;;;22.90;62.60;;;;;;4997489;28;20096;-78
2021/07/13 03:25:09;;;;;;;5.63;4.75;;;22.80;62.60;;;;;;4997894;28;20030;-78
2021/07/13 03:27:35;;;;;;;5.88;5.28;;;22.80;62.60;;;;;;4980715;28;20340;-78
2021/07/13 03:30:04;;;;;;;6.35;5.72;;;22.80;62.60;;;;;;4963836;28;20121;-78
2021/07/13 03:32:33;;;;;;;5.90;5.15;;;22.80;62.70;;;;;;4979809;28;20062;-78
2021/07/13 03:35:00;;;;;;;5.80;5.15;;;22.80;62.70;;;;;;4979522;28;20038;-78
2021/07/13 03:37:27;;;;;;;5.63;5.03;;;22.80;62.70;;;;;;4996228;28;20450;-78
2021/07/13 03:39:54;;;;;;;6.28;5.60;;;22.80;62.80;;;;;;4979715;28;20113;-77
2021/07/13 03:42:22;;;;;;;5.72;4.85;;;22.80;62.80;;;;;;4980349;28;20061;-78
2021/07/13 03:44:48;;;;;;;5.47;4.93;;;22.80;62.80;;;;;;4996816;28;20479;-78
2021/07/13 03:47:15;;;;;;;6.50;5.22;;;22.70;62.80;;;;;;4979656;28;20035;-78
2021/07/13 03:49:43;;;;;;;5.90;5.28;;;22.70;62.80;;;;;;4995647;28;20089;-78
2021/07/13 03:52:09;;;;;;;5.70;4.95;;;22.70;62.80;;;;;;4996909;28;20118;-78
2021/07/13 03:54:35;;;;;;;5.78;4.97;;;22.70;62.90;;;;;;4996661;28;20427;-78
2021/07/13 03:57:00;;;;;;;6.00;5.05;;;22.70;62.90;;;;;;4997078;28;20057;-77
2021/07/13 03:59:26;;;;;;;6.05;5.30;;;22.70;62.90;;;;;;4979341;28;20031;-77
2021/07/13 04:01:52;;;;;;;6.03;5.43;;;22.70;62.90;;;;;;4979286;28;20173;-77
2021/07/13 04:04:18;;;;;;;5.38;4.70;;;22.70;62.90;;;;;;4996258;28;20030;-78
2021/07/13 04:06:43;;;;;;;5.65;4.97;;;22.70;63.00;;;;;;4979219;28;20090;-78
2021/07/13 04:09:09;;;;;;;5.82;5.22;;;22.70;63.00;;;;;;4963187;28;20049;-78
2021/07/13 04:11:36;;;;;;;5.95;5.32;;;22.70;63.00;;;;;;4997082;28;20042;-78
2021/07/13 04:14:03;;;;;;;5.88;5.28;;;22.70;63.00;;;;;;4996481;28;20026;-78
2021/07/13 04:16:29;;;;;;;5.60;5.05;;;22.60;63.00;;;;;;4995040;28;20166;-78
2021/07/13 04:18:55;;;;;;;5.72;5.13;;;22.60;63.00;;;;;;4962928;28;20034;-77
2021/07/13 04:21:21;;;;;;;5.85;5.18;;;22.70;63.10;;;;;;4979632;28;20027;-78
2021/07/13 04:23:46;;;;;;;5.80;5.20;;;22.60;63.10;;;;;;4995845;28;20494;-78
2021/07/13 04:26:12;;;;;;;5.78;5.13;;;22.70;63.10;;;;;;4996380;28;20031;-78
2021/07/13 04:28:38;;;;;;;5.60;5.10;;;22.60;63.10;;;;;;4996121;28;20022;-77
2021/07/13 04:31:04;;;;;;;5.97;5.38;;;22.60;63.10;;;;;;4979489;28;20022;-78
2021/07/13 04:33:30;;;;;;;6.18;5.57;;;22.60;63.20;;;;;;4979164;28;20045;-78
2021/07/13 04:35:57;;;;;;;6.20;5.57;;;22.60;63.20;;;;;;4979014;28;20041;-77
2021/07/13 04:38:24;;;;;;;5.82;5.18;;;22.60;63.20;;;;;;4978778;28;20040;-78
2021/07/13 04:40:50;;;;;;;5.95;5.35;;;22.60;63.20;;;;;;4962650;28;20026;-78
2021/07/13 04:43:15;;;;;;;6.80;5.40;;;22.50;63.20;;;;;;4978682;28;20142;-76
2021/07/13 04:45:41;;;;;;;5.90;5.03;;;22.60;63.30;;;;;;4994906;28;20034;-77
2021/07/13 04:48:07;;;;;;;5.75;5.03;;;22.50;63.20;;;;;;4978424;28;20115;-78
2021/07/13 04:50:34;;;;;;;6.30;5.47;;;22.60;63.30;;;;;;4996205;28;20474;-79
2021/07/13 04:52:59;;;;;;;6.00;5.28;;;22.60;63.30;;;;;;4994623;28;20038;-78
2021/07/13 04:55:25;;;;;;;5.88;5.28;;;22.60;63.30;;;;;;4978472;28;20041;-78
2021/07/13 04:57:51;;;;;;;6.20;5.47;;;22.50;63.20;;;;;;4994598;28;20170;-77
2021/07/13 05:00:17;;;;;;;6.03;5.15;;;22.50;63.30;;;;;;4994300;28;20155;-77
2021/07/13 05:02:43;;;;;;;6.38;5.78;;;22.50;63.30;;;;;;4995226;28;20093;-77
2021/07/13 05:05:14;;;;;;;6.03;5.25;;;22.50;63.30;;;;;;4978446;28;20023;-77
2021/07/13 05:07:44;;;;;;;6.63;5.95;;;22.50;63.40;;;;;;4976965;28;20058;-78
2021/07/13 05:10:12;;;;;;;7.05;6.35;;;22.50;63.50;;;;;;4977641;28;20117;-76
2021/07/13 05:12:38;;;;;;;6.78;6.07;;;22.50;63.60;;;;;;4961930;28;20367;-76
2021/07/13 05:15:09;;;;;;;6.90;6.20;;;22.50;63.60;;;;;;4993715;28;20483;-77
2021/07/13 05:17:38;;;;;;;7.25;6.47;;;22.50;63.70;;;;;;4994637;28;20058;-79
2021/07/13 05:20:13;;;;;;;7.70;6.85;;;22.50;63.70;;;;;;4961746;28;20430;-77
2021/07/13 05:22:40;;;;;;;7.32;6.55;;;22.50;63.70;;;;;;4995440;28;20069;-76
2021/07/13 05:25:07;;;;;;;7.70;6.72;;;22.50;63.70;;;;;;4995275;28;20058;-78
2021/07/13 05:27:40;;;;;;;6.82;6.13;;;22.50;63.80;;;;;;4995177;28;20084;-77
2021/07/13 05:30:10;;;;;;;7.43;6.50;;;22.50;63.80;;;;;;4962384;28;20026;-76
2021/07/13 05:32:36;;;;;;;7.68;6.65;;;22.50;63.70;;;;;;4977742;28;20456;-78
2021/07/13 05:35:03;;;;;;;7.85;6.97;;;22.50;63.70;;;;;;4994328;28;20391;-77
2021/07/13 05:37:29;;;;;;;8.85;7.35;;;22.40;63.70;;;;;;4977354;28;20077;-78
2021/07/13 05:39:55;;;;;;;7.93;7.13;;;22.50;63.80;;;;;;4978237;28;20026;-77
2021/07/13 05:42:22;;;;;;;8.68;7.78;;;22.50;63.80;;;;;;4961496;28;20038;-78
2021/07/13 05:44:47;;;;;;;8.20;7.30;;;22.40;63.80;;;;;;4978230;28;20034;-77
2021/07/13 05:47:13;;;;;;;7.97;7.15;;;22.50;63.90;;;;;;4993865;28;20403;-78
2021/07/13 05:49:41;;;;;;;8.77;7.88;;;22.50;63.90;;;;;;4977688;28;20129;-79
2021/07/13 05:52:06;;;;;;;8.68;7.78;;;22.40;63.90;;;;;;4993281;28;20034;-78
2021/07/13 05:54:32;;;;;;;8.65;7.70;;;22.50;63.90;;;;;;4977087;28;20117;-79
2021/07/13 05:56:59;;;;;;;9.32;8.35;;;22.50;64.00;;;;;;4977254;28;20037;-78
2021/07/13 05:59:26;;;;;;;9.50;8.40;;;22.50;64.00;;;;;;4994710;28;20030;-78
2021/07/13 06:01:52;;;;;;;9.50;8.55;;;22.50;64.10;;;;;;4977195;28;20038;-78
2021/07/13 06:04:18;;;;;;;9.38;8.43;;;22.50;64.00;;;;;;4977106;28;20452;-78
2021/07/13 06:06:43;;;;;;;9.55;8.55;;;22.50;64.10;;;;;;4993179;28;20030;-78
2021/07/13 06:09:09;;;;;;;9.55;8.60;;;22.50;64.10;;;;;;4992939;28;20046;-79
2021/07/13 06:11:35;;;;;;;10.13;9.07;;;22.40;64.10;;;;;;4993392;28;20030;-79
2021/07/13 06:14:00;;;;;;;10.05;9.00;;;22.50;64.10;;;;;;4977634;28;20034;-79
2021/07/13 06:16:26;;;;;;;10.30;9.20;;;22.50;64.10;;;;;;4976956;28;20054;-78
2021/07/13 06:18:52;;;;;;;10.23;9.13;;;22.50;64.10;;;;;;4994313;28;20031;-78
2021/07/13 06:21:18;;;;;;;10.13;9.07;;;22.50;64.10;;;;;;4977134;28;20038;-79
2021/07/13 06:23:43;;;;;;;10.25;9.15;;;22.50;64.20;;;;;;4993136;28;20030;-78
2021/07/13 06:26:09;;;;;;;11.30;9.90;;;22.50;64.20;;;;;;4993193;28;20534;-79
2021/07/13 06:28:35;;;;;;;11.18;10.00;;;22.50;64.20;;;;;;4992988;28;20022;-78
2021/07/13 06:31:00;;;;;;;10.93;9.73;;;22.50;64.20;;;;;;4993592;28;20117;-78
2021/07/13 06:33:26;;;;;;;11.50;9.68;;;22.50;64.10;;;;;;4960725;28;20077;-78
2021/07/13 06:35:52;;;;;;;11.30;9.65;;;22.50;64.10;;;;;;4976810;28;20061;-77
2021/07/13 06:38:17;;;;;;;12.30;10.38;;;22.50;64.20;;;;;;4976949;28;20030;-78
2021/07/13 06:40:44;;;;;;;11.43;9.82;;;22.50;64.20;;;;;;4977065;28;20062;-78
2021/07/13 06:43:10;;;;;;;10.38;9.27;;;22.40;64.10;;;;;;4992679;28;20053;-77
2021/07/13 06:45:39;;;;;;;10.80;9.57;;;22.40;64.10;;;;;;4994626;28;20045;-78
2021/07/13 06:48:05;;;;;;;11.65;9.98;;;22.50;64.20;;;;;;4976677;28;20026;-78
2021/07/13 06:50:30;;;;;;;11.60;10.40;;;22.40;64.10;;;;;;4992699;28;20027;-80
2021/07/13 06:52:56;;;;;;;11.43;10.15;;;22.40;64.10;;;;;;4992378;28;20041;-78
2021/07/13 06:55:22;;;;;;;11.18;9.98;;;22.50;64.20;;;;;;4976503;28;20081;-78
2021/07/13 06:57:48;;;;;;;11.70;10.40;;;22.40;64.20;;;;;;4960438;28;20410;-78
2021/07/13 07:00:14;;;;;;;12.35;10.75;;;22.40;64.20;;;;;;4976675;28;20031;-78
2021/07/13 07:02:40;;;;;;;13.73;11.02;;;22.40;64.20;;;;;;4992682;28;20080;-78
2021/07/13 07:05:08;;;;;;;11.45;9.88;;;22.40;64.30;;;;;;4992477;28;20030;-79
2021/07/13 07:07:34;;;;;;;12.43;11.02;;;22.40;64.20;;;;;;4977258;28;20379;-79
2021/07/13 07:09:59;;;;;;;12.35;10.43;;;22.50;64.20;;;;;;4975374;28;20051;-78
2021/07/13 07:12:25;;;;;;;12.98;11.52;;;22.40;64.20;;;;;;4957855;28;20049;-78
2021/07/13 07:14:51;;;;;;;12.45;10.77;;;22.50;64.20;;;;;;4973868;28;20035;-78
2021/07/13 07:17:16;;;;;;;12.38;10.90;;;22.40;64.20;;;;;;4957068;28;20034;-78
2021/07/13 07:19:42;;;;;;;12.93;11.07;;;22.50;64.30;;;;;;4973253;28;20476;-78
2021/07/13 07:22:08;;;;;;;12.15;10.85;;;22.40;64.30;;;;;;4957138;28;20062;-79
2021/07/13 07:24:34;;;;;;;12.27;10.77;;;22.40;64.20;;;;;;4973007;28;20031;-78
2021/07/13 07:27:00;;;;;;;13.25;11.73;;;22.50;64.30;;;;;;4956763;28;20031;-78
2021/07/13 07:29:26;;;;;;;12.65;10.88;;;22.50;64.30;;;;;;4957929;28;20375;-78
2021/07/13 07:31:52;;;;;;;12.10;10.50;;;22.50;64.30;;;;;;4976529;28;20093;-78
2021/07/13 07:34:18;;;;;;;11.38;10.18;;;22.50;64.40;;;;;;4976750;28;20388;-78
2021/07/13 07:36:44;;;;;;;11.63;10.27;;;22.50;64.40;;;;;;4976609;28;20034;-78
2021/07/13 07:39:10;;;;;;;13.23;11.00;;;22.50;64.40;;;;;;4978030;28;20035;-78
2021/07/13 07:41:36;;;;;;;12.07;10.38;;;22.50;64.50;;;;;;4977786;28;20061;-78
2021/07/13 07:44:02;;;;;;;12.68;10.95;;;22.50;64.50;;;;;;4960413;28;20062;-78
2021/07/13 07:46:28;;;;;;;12.30;10.45;;;22.50;64.50;;;;;;4976675;28;20035;-78
2021/07/13 07:48:53;;;;;;;12.77;11.10;;;22.50;64.50;;;;;;4960963;28;20042;-78
2021/07/13 07:51:20;;;;;;;12.68;10.88;;;22.50;64.50;;;;;;4976350;28;20045;-78
2021/07/13 07:53:45;;;;;;;11.75;9.55;;;22.50;64.50;;;;;;4977519;28;20039;-78
2021/07/13 07:56:11;;;;;;;12.13;10.40;;;22.50;64.50;;;;;;4960112;28;20248;-78
2021/07/13 07:58:37;;;;;;;11.45;9.77;;;22.50;64.50;;;;;;4960189;28;20121;-78
2021/07/13 08:01:03;;;;;;;11.45;10.25;;;22.50;64.50;;;;;;4977550;28;20113;-77
2021/07/13 08:03:28;;;;;;;11.90;10.63;;;22.50;64.40;;;;;;4960251;28;20035;-78
2021/07/13 08:05:55;;;;;;;11.65;10.07;;;22.50;64.40;;;;;;4943701;28;20031;-78
2021/07/13 08:08:24;;;;;;;10.55;9.35;;;22.50;64.30;;;;;;4959895;28;20059;-79
2021/07/13 08:10:50;;;;;;;12.07;10.18;;;22.50;64.40;;;;;;4960010;28;20029;-79
2021/07/13 08:13:16;;;;;;;10.35;9.23;;;22.50;64.40;;;;;;4960155;28;20046;-79
2021/07/13 08:15:42;;;;;;;11.25;9.77;;;22.50;64.40;;;;;;4943920;28;20129;-79
2021/07/13 08:18:08;;;;;;;10.95;9.65;;;22.50;64.40;;;;;;4975739;28;20085;-77
2021/07/13 08:20:33;;;;;;;11.00;9.50;;;22.50;64.40;;;;;;4959771;28;20034;-76
2021/07/13 08:22:59;;;;;;;10.60;9.43;;;22.50;64.30;;;;;;4975915;28;20126;-77
2021/07/13 08:25:25;;;;;;;11.55;9.75;;;22.60;64.40;;;;;;4959805;28;20121;-77
2021/07/13 08:27:51;;;;;;;11.35;9.95;;;22.60;64.40;;;;;;4975772;28;20031;-79
2021/07/13 08:30:17;;;;;;;10.02;8.75;;;22.60;64.40;;;;;;4959643;28;20027;-78
2021/07/13 08:32:43;;;;;;;10.75;9.13;;;22.60;64.40;;;;;;4959182;28;20070;-80
2021/07/13 08:35:10;;;;;;;11.07;9.23;;;22.60;64.30;;;;;;4975562;28;20066;-78
2021/07/13 08:37:35;;;;;;;11.57;9.70;;;22.60;64.40;;;;;;4959576;28;20034;-78
2021/07/13 08:40:04;;;;;;;9.85;8.35;;;22.60;64.40;;;;;;4976857;28;20035;-78
2021/07/13 08:42:36;;;;;;;10.10;8.88;;;22.60;64.40;;;;;;4975680;28;20125;-78
2021/07/13 08:45:11;;;;;;;10.50;9.07;;;22.60;64.50;;;;;;4977521;28;20027;-78
2021/07/13 08:47:39;;;;;;;9.48;8.40;;;22.70;64.60;;;;;;4959498;28;20486;-78
2021/07/13 08:50:07;;;;;;;10.20;8.93;;;22.70;64.60;;;;;;4976092;28;20031;-78
2021/07/13 08:52:34;;;;;;;9.88;8.85;;;22.70;64.70;;;;;;4975068;28;20046;-80
2021/07/13 08:55:00;;;;;;;10.27;9.05;;;22.70;64.70;;;;;;4975298;28;20542;-79
2021/07/13 08:57:26;;;;;;;10.20;8.70;;;22.70;64.80;;;;;;4974859;28;20074;-79
2021/07/13 08:59:52;;;;;;;10.27;8.93;;;22.70;64.90;;;;;;4974939;28;20061;-80
2021/07/13 09:02:17;;;;;;;9.95;8.88;;;22.70;64.90;;;;;;4943118;28;20034;-80
2021/07/13 09:04:44;;;;;;;11.00;8.75;;;22.70;64.90;;;;;;4974933;28;20033;-78
2021/07/13 09:07:09;;;;;;;9.85;8.52;;;22.80;65.10;;;;;;4959351;28;20054;-78
2021/07/13 09:09:41;;;;;;;10.07;8.45;;;22.70;65.10;;;;;;4959015;28;20050;-79
2021/07/13 09:12:10;;;;;;;10.00;8.80;;;22.70;65.20;;;;;;4975798;28;20027;-78
2021/07/13 09:15:04;;;;;;;9.80;8.20;;;22.80;65.20;;;;;;4976184;28;20030;-78
2021/07/13 09:17:30;;;;;;;9.98;8.00;;;22.80;65.40;;;;;;4958903;28;20033;-78
2021/07/13 09:20:09;;;;;;;8.95;7.75;;;22.80;65.10;;;;;;4974553;28;20034;-79
2021/07/13 09:22:36;;;;;;;8.15;7.28;;;22.90;65.30;;;;;;4943456;28;20035;-78
2021/07/13 09:25:50;;;;;;;8.95;8.00;;;22.90;65.30;;;;;;4974832;28;20042;-79
2021/07/13 09:28:21;;;;;;;8.90;7.55;;;22.90;65.50;;;;;;4953380;28;20053;-77
2021/07/13 09:30:50;;;;;;;8.45;7.43;;;22.90;65.30;;;;;;4974572;28;20038;-78
2021/07/13 09:33:32;;;;;;;8.77;7.38;;;22.90;65.30;;;;;;4958240;28;20035;-78
2021/07/13 09:36:11;;;;;;;8.48;7.28;;;22.90;65.50;;;;;;4974102;28;20090;-78
2021/07/13 09:38:37;;;;;;;8.35;7.05;;;23.00;65.50;;;;;;4958858;28;20512;-78
2021/07/13 09:41:10;;;;;;;9.38;7.78;;;23.00;65.40;;;;;;4958809;28;20019;-78
2021/07/13 09:43:41;;;;;;;8.25;7.15;;;23.00;65.40;;;;;;4958379;28;20039;-78
2021/07/13 09:46:25;;;;;;;8.80;7.47;;;23.10;65.50;;;;;;4958078;28;20114;-78
2021/07/13 09:49:27;;;;;;;7.88;6.50;;;23.10;65.70;;;;;;4975970;28;20031;-79
2021/07/13 09:51:58;;;;;;;8.02;6.55;;;23.10;65.60;;;;;;4958792;28;20376;-79
2021/07/13 09:54:33;;;;;;;8.32;7.07;;;23.20;65.50;;;;;;4974153;28;20069;-78
2021/07/13 09:57:04;;;;;;;8.52;6.63;;;23.20;65.60;;;;;;4957973;28;20031;-78
2021/07/13 09:59:31;;;;;;;8.38;6.95;;;23.20;65.60;;;;;;4958282;28;20026;-78
2021/07/13 10:01:57;;;;;;;8.48;7.57;;;23.20;65.60;;;;;;4975410;28;20035;-80
2021/07/13 10:04:23;;;;;;;9.00;7.47;;;23.20;65.60;;;;;;4957963;28;20463;-79
2021/07/13 10:06:51;;;;;;;8.65;7.20;;;23.20;65.60;;;;;;4973902;28;20023;-79
2021/07/13 10:09:20;;;;;;;7.85;6.55;;;23.30;65.70;;;;;;4986545;28;20069;-79
2021/07/13 10:11:46;;;;;;;8.20;7.18;;;23.30;65.70;;;;;;4993366;28;20109;-79
2021/07/13 10:14:12;;;;;;;7.75;6.90;;;23.30;65.70;;;;;;4977197;28;20137;-79
2021/07/13 10:16:39;;;;;;;7.43;6.38;;;23.40;65.80;;;;;;4993720;28;20019;-79
2021/07/13 10:19:08;;;;;;;8.73;7.20;;;23.40;65.80;;;;;;4961191;28;20073;-80
2021/07/13 10:21:37;;;;;;;7.65;6.63;;;23.40;65.70;;;;;;4976904;28;20114;-79
2021/07/13 10:24:04;;;;;;;8.10;6.68;;;23.50;65.70;;;;;;4960910;28;20380;-80
2021/07/13 10:26:50;;;;;;;7.38;6.35;;;23.50;65.70;;;;;;4976967;28;20026;-79
2021/07/13 10:29:31;;;;;;;8.20;7.03;;;23.50;65.90;;;;;;4977503;28;20182;-78
2021/07/13 10:32:00;;;;;;;7.72;6.55;;;23.50;65.80;;;;;;4994417;28;20034;-79
2021/07/13 10:34:49;;;;;;;8.05;6.70;;;23.60;65.80;;;;;;4994272;28;20165;-79
2021/07/13 10:37:29;;;;;;;7.30;6.13;;;23.60;65.90;;;;;;4994134;28;20062;-79
2021/07/13 10:40:01;;;;;;;7.88;6.65;;;23.60;65.80;;;;;;4960666;28;20123;-79
2021/07/13 10:42:48;;;;;;;7.13;5.95;;;23.60;65.60;;;;;;4976934;28;20530;-80
2021/07/13 10:45:16;;;;;;;8.55;6.63;;;23.70;65.70;;;;;;4993752;28;20354;-79
2021/07/13 10:48:14;;;;;;;7.07;6.18;;;23.70;65.50;;;;;;4992892;28;20471;-80
2021/07/13 10:51:10;;;;;;;6.90;5.82;;;23.70;65.60;;;;;;4976441;28;20030;-80
2021/07/13 10:53:41;;;;;;;6.78;5.63;;;23.70;65.50;;;;;;4968558;28;20065;-80
2021/07/13 10:56:13;;;;;;;6.80;6.03;;;23.70;65.30;;;;;;4977339;28;20045;-78
2021/07/13 10:58:46;;;;;;;7.32;6.10;;;23.70;65.30;;;;;;4976777;28;20034;-79
2021/07/13 11:01:14;;;;;;;7.22;6.35;;;23.80;65.40;;;;;;4994061;28;20117;-79
2021/07/13 11:03:40;;;;;;;6.45;5.50;;;23.80;65.30;;;;;;4993914;28;20527;-79
2021/07/13 11:06:18;;;;;;;7.05;6.10;;;23.80;65.30;;;;;;4996801;28;20120;-79
2021/07/13 11:08:50;;;;;;;6.57;5.70;;;23.80;65.40;;;;;;4980032;28;20054;-79
2021/07/13 11:11:22;;;;;;;7.20;6.18;;;23.80;65.40;;;;;;4980575;28;20045;-77
2021/07/13 11:13:52;;;;;;;7.28;6.13;;;23.90;65.40;;;;;;4996586;28;20031;-77
2021/07/13 11:16:24;;;;;;;7.05;5.68;;;23.90;65.40;;;;;;4980463;28;20117;-77
2021/07/13 11:18:49;;;;;;;7.35;6.32;;;23.90;65.40;;;;;;4964389;28;20026;-75
2021/07/13 11:21:19;;;;;;;7.25;6.05;;;23.90;65.30;;;;;;4997325;28;20033;-78
2021/07/13 11:23:46;;;;;;;7.45;6.07;;;24.00;65.50;;;;;;4979945;28;20030;-78
2021/07/13 11:26:13;;;;;;;7.05;5.90;;;24.00;65.40;;;;;;4996503;28;20027;-77
2021/07/13 11:28:54;;;;;;;7.30;6.32;;;24.00;65.40;;;;;;4996184;28;20030;-79
2021/07/13 11:31:40;;;;;;;7.53;6.18;;;24.00;65.40;;;;;;4980246;28;20034;-79
2021/07/13 11:34:11;;;;;;;7.65;6.50;;;24.10;65.40;;;;;;4996413;28;20048;-79
2021/07/13 11:36:42;;;;;;;7.03;5.80;;;24.00;65.30;;;;;;4996574;28;20459;-82
2021/07/13 11:39:15;;;;;;;6.43;5.65;;;24.10;65.30;;;;;;4963558;28;20105;-79
2021/07/13 11:41:42;;;;;;;7.70;6.60;;;24.10;65.30;;;;;;4997759;28;20038;-79
2021/07/13 11:44:12;;;;;;;7.05;5.65;;;24.10;65.20;;;;;;4980806;28;20467;-79
2021/07/13 11:46:46;;;;;;;6.07;5.30;;;24.20;65.30;;;;;;4980810;28;20444;-79
2021/07/13 11:49:18;;;;;;;6.95;5.97;;;24.20;65.50;;;;;;4963465;28;20026;-78
2021/07/13 11:51:50;;;;;;;7.32;6.35;;;24.20;65.20;;;;;;4980319;28;20030;-78
2021/07/13 11:54:17;;;;;;;6.63;5.78;;;24.20;65.20;;;;;;4995777;28;20509;-80
2021/07/13 11:56:46;;;;;;;6.97;6.03;;;24.20;65.10;;;;;;4979698;28;20414;-80
2021/07/13 11:59:19;;;;;;;7.07;5.65;;;24.30;65.10;;;;;;4979487;28;20117;-79
2021/07/13 12:01:50;;;;;;;7.25;6.00;;;24.20;65.00;;;;;;4980504;28;20030;-80
2021/07/13 12:04:16;;;;;;;7.07;6.35;;;24.30;65.00;;;;;;4963712;28;20061;-79
2021/07/13 12:06:42;;;;;;;6.72;5.63;;;24.30;65.00;;;;;;4963269;28;20030;-80
2021/07/13 12:09:13;;;;;;;7.30;6.28;;;24.40;65.00;;;;;;4979202;28;20050;-80
2021/07/13 12:11:45;;;;;;;7.40;6.18;;;24.40;65.10;;;;;;4995617;28;20038;-80
2021/07/13 12:14:15;;;;;;;6.80;5.88;;;24.40;65.00;;;;;;4963829;28;20049;-80
2021/07/13 12:16:42;;;;;;;6.68;5.90;;;24.40;65.50;;;;;;4979014;28;20030;-80
2021/07/13 12:19:16;;;;;;;7.13;5.90;;;24.40;64.80;;;;;;4996203;28;20459;-80
2021/07/13 12:21:47;;;;;;;6.67;5.97;;;24.50;64.90;;;;;;4997100;28;20117;-81
2021/07/13 12:24:18;;;;;;;7.22;6.03;;;24.50;64.80;;;;;;4962978;28;20361;-80
2021/07/13 12:26:57;;;;;;;7.03;6.13;;;24.50;64.80;;;;;;4995986;28;20391;-80
2021/07/13 12:29:30;;;;;;;7.05;6.35;;;24.50;64.80;;;;;;4979160;28;20041;-80
2021/07/13 12:31:58;;;;;;;7.15;6.28;;;24.60;64.80;;;;;;4979158;28;20041;-80
2021/07/13 12:34:26;;;;;;;7.05;6.00;;;24.60;65.50;;;;;;4978724;28;20137;-80
2021/07/13 12:37:17;;;;;;;7.40;6.57;;;24.60;64.80;;;;;;4979033;28;20113;-83
2021/07/13 12:39:45;;;;;;;6.75;5.82;;;24.60;64.90;;;;;;4990566;28;20046;-81
2021/07/13 12:42:21;;;;;;;6.88;6.13;;;24.70;64.70;;;;;;4978882;28;20022;-82
2021/07/13 12:44:48;;;;;;;7.57;6.32;;;24.70;64.60;;;;;;4979098;28;20027;-81
2021/07/13 12:47:32;;;;;;;7.03;6.15;;;24.70;64.60;;;;;;4996748;28;20026;-81
2021/07/13 12:50:07;;;;;;;;;;;24.80;64.60;;;;;;4979707;28;20034;-82
2021/07/13 12:52:37;;;;;;;7.72;6.65;;;24.80;64.40;;;;;;4995049;28;19924;-82